METAR AND TAF INFORMATION
METAR FOR USSS
ADDS - METARS form results

(1239 UTC 23 January 2019)
Data provider http://aviationweather.gov/metar/data/
 
METAR text: USSS 231230Z 25003MPS CAVOK M19/M21 Q1017 R26R/820350 NOSIG RMK QFE742/0989
Conditions at: USSS (EKATERINBURG , RU) observed 1230 UTC 23 January 2019
Temperature: -19.0°C (-2°F)
Dewpoint: -21.0°C (-6°F) [RH = 84%]
Pressure (altimeter): 30.03 inches Hg (1017.0 mb)
Winds: from the WSW (250 degrees) at 7 MPH (6 knots; 3.1 m/s)
Visibility: 6 or more miles (10+ km)
Ceiling: ceiling and visibility are OK
Clouds: unknown
Weather: no significant weather observed at this time

METAR text: USSS 231200Z 25004MPS CAVOK M17/M20 Q1017 R26R/820350 NOSIG RMK QFE742/0989
Conditions at: USSS (EKATERINBURG , RU) observed 1200 UTC 23 January 2019
Temperature: -17.0°C ( 1°F)
Dewpoint: -20.0°C (-4°F) [RH = 77%]
Pressure (altimeter): 30.03 inches Hg (1017.0 mb)
Winds: from the WSW (250 degrees) at 9 MPH (8 knots; 4.1 m/s)
Visibility: 6 or more miles (10+ km)
Ceiling: ceiling and visibility are OK
Clouds: unknown
Weather: no significant weather observed at this time

Forecast for: USSS (EKATERINBURG , RU)
Text: TAF USSS 231055Z 2312/2412 27003G08MPS 3100 -SN BR BKN011
Forecast period: 1200 UTC 23 January 2019 to 0600 UTC 24 January 2019
Forecast type: FROM: standard forecast or significant change
Winds: from the W (270 degrees) at 7 MPH (6 knots; 3.1 m/s)
gusting to 18 MPH (16 knots; 8.2 m/s)
Visibility: 1.93 miles (3.11 km)
Ceiling: 1100 feet AGL
Clouds: broken clouds at 1100 feet AGL
Weather: -SN BR  (light snow, mist)
Text: TEMPO 2313/2406 0300 FZFG VV002
Forecast period: 1300 UTC 23 January 2019 to 0600 UTC 24 January 2019
Forecast type: TEMPORARY: The following changes expected for less than half the time period
Visibility: 0.19 miles (0.31 km)
Ceiling: indefinite ceiling with vertical visibility of 200 feet AGL
Clouds: obscured sky
Weather: FZFG  (freezing fog)
Text: BECMG 2406/2408 5000 BR
Forecast period: 0600 to 1200 UTC 24 January 2019
Forecast type: BECOMING: Conditions expected to become as follows by 0800 UTC 24 January 2019
Winds: from the W (270 degrees) at 7 MPH (6 knots; 3.1 m/s)
gusting to 18 MPH (16 knots; 8.2 m/s)
Visibility: 3 miles (5 km)
Ceiling: 1100 feet AGL
Clouds: broken clouds at 1100 feet AGL
Weather: BR  (mist)

 AIRPORT MAP

 RUNWAY INFORMATION

 AIRPORT FREQUENCIES
Type APP Name APP Frequency 125.9 MHZ
Type ATIS Name ATIS Frequency 127.8 MHZ
Type GCA Name GCA Frequency 120 MHZ
Type GND Name GND Frequency 119 MHZ
Type RDR Name ASR Frequency 118.7 MHZ
Type TWR Name TWR Frequency 120 MHZ

 AIRPORT NEAR NAVIGATION AIDS
Type NDB Name Koltsovo Frequency 786 KHZ
Type NDB Name Koltsovo Frequency 786 KHZ
Type NDB Name Koltsovo Frequency 370 KHZ
Type NDB Name Koltsovo Frequency 370 KHZ



2018 Air Astana Virtual Airline